Time;durP1;ratioP1;P1;durP2;ratioP2;P2;SDS_P1;SDS_P2;PMS_P1;PMS_P2;Temp;Humidity;BMP_temperature;BMP_pressure;BME280_temperature;BME280_humidity;BME280_pressure;Samples;Min_cycle;Max_cycle;Signal;HPM_P1;HPM_P2
2022/11/25 00:02:23;;;;;;;;;;;;;;;-143.57;100.00;51338.78;5084167;28;19935;-68
2022/11/25 00:04:50;;;;;;;;;;;;;;;-143.57;100.00;51350.69;5077476;27;20019;-67
2022/11/25 00:07:18;;;;;;;;;;;;;;;-143.57;100.00;51342.75;5084196;28;20584;-69
2022/11/25 00:09:45;;;;;;;;;;;;;;;-143.57;100.00;51342.75;5076940;28;19933;-68
2022/11/25 00:12:11;;;;;;;;;;;;;;;-143.57;100.00;51378.53;5078982;27;19948;-65
2022/11/25 00:14:38;;;;;;;;;;;;;;;-143.57;100.00;51346.72;5079347;28;19989;-67
2022/11/25 00:17:05;;;;;;;;;;;;;;;-143.57;100.00;51338.78;5079958;28;19928;-67
2022/11/25 00:19:32;;;;;;;;;;;;;;;-143.57;100.00;51338.78;5079320;28;19924;-66
2022/11/25 00:21:59;;;;;;;;;;;;;;;-143.57;100.00;51358.66;5079297;27;20017;-67
2022/11/25 00:24:25;;;;;;;;;;;;;;;-143.57;100.00;51352.69;5079868;28;19951;-67
2022/11/25 00:26:52;;;;;;;;;;;;;;;-143.57;100.00;51346.72;5079037;27;19928;-66
2022/11/25 00:29:18;;;;;;;;;;;;;;;-143.57;100.00;51332.81;5079694;28;19977;-66
2022/11/25 00:31:45;;;;;;;;;;;;;;;-143.57;100.00;51306.97;5078038;27;19928;-67
2022/11/25 00:34:13;;;;;;;;;;;;;;;-143.57;100.00;51314.91;5083152;28;20568;-67
2022/11/25 00:36:39;;;;;;;;;;;;;;;-143.57;100.00;51330.81;5080744;27;20013;-66
2022/11/25 00:39:10;;;;;;;;;;;;;;;-143.57;100.00;51348.72;5080711;28;20403;-66
2022/11/25 00:44:34;;;;;;;;;;;;;;;-143.57;100.00;51350.69;5082611;28;19936;-67
2022/11/25 00:47:04;;;;;;;;;;;;;;;-143.57;100.00;51342.75;5080572;28;20019;-66
2022/11/25 00:49:30;;;;;;;;;;;;;;;-143.57;100.00;51358.66;5082035;27;20647;-67
2022/11/25 00:51:57;;;;;;;;;;;;;;;-143.57;100.00;51295.03;5080430;28;20017;-67
2022/11/25 00:54:24;;;;;;;;;;;;;;;-143.57;100.00;51370.56;5096183;27;19932;-66
2022/11/25 00:56:51;;;;;;;;;;;;;;;-143.57;100.00;51358.66;5080805;28;19938;-65
2022/11/25 00:59:18;;;;;;;;;;;;;;;-143.57;100.00;51332.81;5080475;28;19959;-67
2022/11/25 01:01:45;;;;;;;;;;;;;;;-143.57;100.00;51322.88;5094089;27;19924;-66
2022/11/25 01:04:11;;;;;;;;;;;;;;;-143.57;100.00;51334.78;5081884;28;20467;-66
2022/11/25 01:06:38;;;;;;;;;;;;;;;-143.57;100.00;51342.75;5097429;27;19928;-66
2022/11/25 01:09:06;;;;;;;;;;;;;;;-143.57;100.00;51346.72;5080670;27;19928;-66
2022/11/25 01:11:33;;;;;;;;;;;;;;;-143.57;100.00;51348.72;5080803;28;20517;-66
2022/11/25 01:14:00;;;;;;;;;;;;;;;-143.57;100.00;51346.72;5080789;28;19928;-65
2022/11/25 01:16:27;;;;;;;;;;;;;;;-143.57;100.00;51366.59;5082894;28;20469;-66
2022/11/25 01:18:54;;;;;;;;;;;;;;;-143.57;100.00;51320.88;5081404;28;20487;-66
2022/11/25 01:21:23;;;;;;;;;;;;;;;-143.57;100.00;51330.81;5082980;28;19928;-67
2022/11/25 01:23:52;;;;;;;;;;;;;;;-143.57;100.00;51372.56;5079827;28;19927;-66
2022/11/25 01:26:21;;;;;;;;;;;;;;;-143.57;100.00;51348.72;5094186;27;19928;-65
2022/11/25 01:28:51;;;;;;;;;;;;;;;-143.57;100.00;51362.63;5080128;28;20368;-66
2022/11/25 01:31:19;;;;;;;;;;;;;;;-143.57;100.00;51366.59;5078227;28;19928;-65
2022/11/25 01:33:47;;;;;;;;;;;;;;;-143.57;100.00;51338.78;5090755;28;19930;-67
2022/11/25 01:36:15;;;;;;;;;;;;;;;-143.57;100.00;51354.66;5079629;27;20031;-66
2022/11/25 01:38:43;;;;;;;;;;;;;;;-143.57;100.00;51332.81;5084678;28;20632;-66
2022/11/25 01:41:12;;;;;;;;;;;;;;;-143.57;100.00;51350.69;5078716;28;20300;-66
2022/11/25 01:43:38;;;;;;;;;;;;;;;-143.57;100.00;51334.78;5083351;28;19934;-66
2022/11/25 01:46:11;;;;;;;;;;;;;;;-143.57;100.00;51360.63;5080800;27;19953;-66
2022/11/25 01:48:40;;;;;;;;;;;;;;;-143.57;100.00;51370.56;5080417;28;19927;-66
2022/11/25 01:51:22;;;;;;;;;;;;;;;-143.57;100.00;51354.66;5079708;28;19989;-66
2022/11/25 01:53:50;;;;;;;;;;;;;;;-143.57;100.00;51350.69;5079751;28;20325;-67
2022/11/25 01:56:17;;;;;;;;;;;;;;;-143.57;100.00;51310.94;5078311;28;19928;-65
2022/11/25 01:58:45;;;;;;;;;;;;;;;-143.57;100.00;51346.72;5083326;27;19931;-66
2022/11/25 02:01:12;;;;;;;;;;;;;;;-143.57;100.00;51340.75;5080691;28;19928;-66
2022/11/25 02:03:41;;;;;;;;;;;;;;;-143.57;100.00;51340.75;5077167;28;21417;-66
2022/11/25 02:06:17;;;;;;;;;;;;;;;-143.57;100.00;51350.69;5077165;28;19932;-66
2022/11/25 02:08:47;;;;;;;;;;;;;;;-143.57;100.00;51318.88;5081586;28;19938;-67
2022/11/25 02:11:15;;;;;;;;;;;;;;;-143.57;100.00;51330.81;5078323;28;20032;-66
2022/11/25 02:13:42;;;;;;;;;;;;;;;-143.57;100.00;51314.91;5079365;27;19928;-66
2022/11/25 02:16:09;;;;;;;;;;;;;;;-143.57;100.00;51316.91;5078369;28;20005;-66
2022/11/25 02:18:36;;;;;;;;;;;;;;;-143.57;100.00;51370.56;5075449;28;19963;-66
2022/11/25 02:21:03;;;;;;;;;;;;;;;-143.57;100.00;51366.59;5076468;28;19924;-66
2022/11/25 02:23:46;;;;;;;;;;;;;;;-143.57;100.00;51342.75;5080091;27;20398;-66
2022/11/25 02:26:13;;;;;;;;;;;;;;;-143.57;100.00;51346.72;5076294;28;19928;-66
2022/11/25 02:28:40;;;;;;;;;;;;;;;-143.57;100.00;51322.88;5075587;28;20595;-67
2022/11/25 02:31:07;;;;;;;;;;;;;;;-143.57;100.00;51358.66;5077618;28;19928;-66
2022/11/25 02:33:35;;;;;;;;;;;;;;;-143.57;100.00;51338.78;5075484;28;19932;-66
2022/11/25 02:36:03;;;;;;;;;;;;;;;-143.57;100.00;51334.78;5076783;28;19932;-67
2022/11/25 02:38:33;;;;;;;;;;;;;;;-143.57;100.00;51364.63;5077741;28;20521;-66
2022/11/25 02:41:17;;;;;;;;;;;;;;;-143.57;100.00;51322.88;5076494;28;20603;-67
2022/11/25 02:43:48;;;;;;;;;;;;;;;-143.57;100.00;51342.75;5090620;28;19932;-66
2022/11/25 02:46:20;;;;;;;;;;;;;;;-143.57;100.00;51322.88;5076774;28;19932;-67
2022/11/25 02:48:48;;;;;;;;;;;;;;;-143.57;100.00;51342.75;5081476;28;19928;-66
2022/11/25 02:51:36;;;;;;;;;;;;;;;-143.57;100.00;51338.78;5075389;28;19937;-66
2022/11/25 02:54:03;;;;;;;;;;;;;;;-143.57;100.00;51338.78;5077325;28;19924;-66
2022/11/25 02:56:31;;;;;;;;;;;;;;;-143.57;100.00;51378.53;5077495;27;19928;-65
2022/11/25 02:58:58;;;;;;;;;;;;;;;-143.57;100.00;51334.78;5075672;28;19935;-66
2022/11/25 03:01:28;;;;;;;;;;;;;;;-143.57;100.00;51362.63;5091539;27;19952;-65
2022/11/25 03:03:55;;;;;;;;;;;;;;;-143.57;100.00;51318.88;5077254;28;20807;-67
2022/11/25 03:06:22;;;;;;;;;;;;;;;-143.57;100.00;51318.88;5073669;28;19956;-66
2022/11/25 03:08:49;;;;;;;;;;;;;;;-143.57;100.00;51318.88;5096427;28;19935;-64
2022/11/25 03:11:16;;;;;;;;;;;;;;;-143.57;100.00;51322.88;5078221;28;19928;-65
2022/11/25 03:13:43;;;;;;;;;;;;;;;-143.57;100.00;51354.66;5079101;28;19924;-66
2022/11/25 03:16:10;;;;;;;;;;;;;;;-143.57;100.00;51342.75;5071915;28;19966;-66
2022/11/25 03:18:36;;;;;;;;;;;;;;;-143.57;100.00;51312.94;5080365;28;19962;-66
2022/11/25 03:21:03;;;;;;;;;;;;;;;-143.57;100.00;51342.75;5076494;28;19936;-65
2022/11/25 03:23:30;;;;;;;;;;;;;;;-143.57;100.00;51318.88;5077794;28;19928;-66
2022/11/25 03:25:56;;;;;;;;;;;;;;;-143.57;100.00;51330.81;5074206;28;19995;-66
2022/11/25 03:28:24;;;;;;;;;;;;;;;-143.57;100.00;51320.88;5079065;28;20342;-67
2022/11/25 03:30:51;;;;;;;;;;;;;;;-143.57;100.00;51306.97;5076895;28;20630;-66
2022/11/25 03:33:17;;;;;;;;;;;;;;;-143.57;100.00;51338.78;5077794;28;20038;-66
2022/11/25 03:35:46;;;;;;;;;;;;;;;-143.57;100.00;51326.84;5080643;28;19977;-66
2022/11/25 03:38:13;;;;;;;;;;;;;;;-143.57;100.00;51354.66;5078964;28;19951;-66
2022/11/25 03:40:40;;;;;;;;;;;;;;;-143.57;100.00;51324.84;5085138;27;19928;-66
2022/11/25 03:43:07;;;;;;;;;;;;;;;-143.57;100.00;51396.41;5079475;28;19924;-65
2022/11/25 03:45:34;;;;;;;;;;;;;;;-143.57;100.00;51350.69;5080848;28;19985;-65
2022/11/25 03:48:04;;;;;;;;;;;;;;;-143.57;100.00;51303.00;5078607;28;19956;-64
2022/11/25 03:50:31;;;;;;;;;;;;;;;-143.57;100.00;51350.69;5081116;28;19961;-65
2022/11/25 03:52:57;;;;;;;;;;;;;;;-143.57;100.00;51318.88;5079731;28;19932;-65
2022/11/25 03:55:24;;;;;;;;;;;;;;;-143.57;100.00;51354.66;5083924;28;20418;-64
2022/11/25 03:57:53;;;;;;;;;;;;;;;-143.57;100.00;51350.69;5065739;28;19932;-65
2022/11/25 04:00:19;;;;;;;;;;;;;;;-143.57;100.00;51279.13;5076956;28;19940;-65
2022/11/25 04:02:54;;;;;;;;;;;;;;;-143.57;100.00;51354.66;5097400;27;19927;-66
2022/11/25 04:05:21;;;;;;;;;;;;;;;-143.57;100.00;51330.81;5079618;27;20021;-66
2022/11/25 04:07:48;;;;;;;;;;;;;;;-143.57;100.00;51342.75;5080429;28;19936;-66
2022/11/25 04:10:23;;;;;;;;;;;;;;;-143.57;100.00;51338.78;5079011;28;20533;-66
2022/11/25 04:12:51;;;;;;;;;;;;;;;-143.57;100.00;51358.66;5082906;28;19932;-66
2022/11/25 04:15:22;;;;;;;;;;;;;;;-143.57;100.00;51334.78;5078055;28;20013;-65
2022/11/25 04:17:52;;;;;;;;;;;;;;;-143.57;100.00;51330.81;5079019;28;19928;-66
2022/11/25 04:20:19;;;;;;;;;;;;;;;-143.57;100.00;51346.72;5078950;28;19995;-66
2022/11/25 04:22:52;;;;;;;;;;;;;;;-143.57;100.00;51326.84;5082593;28;19932;-66
2022/11/25 04:25:19;;;;;;;;;;;;;;;-143.57;100.00;51362.63;5078067;28;19932;-65
2022/11/25 04:27:46;;;;;;;;;;;;;;;-143.57;100.00;51314.91;5080808;28;20010;-65
2022/11/25 04:30:16;;;;;;;;;;;;;;;-143.57;100.00;51334.78;5090606;27;19939;-64
2022/11/25 04:32:43;;;;;;;;;;;;;;;-143.57;100.00;51346.72;5078951;28;19932;-65
2022/11/25 04:35:12;;;;;;;;;;;;;;;-143.57;100.00;51346.72;5079761;28;19960;-64
2022/11/25 04:37:43;;;;;;;;;;;;;;;-143.57;100.00;51362.63;5078804;28;19935;-64
2022/11/25 04:40:10;;;;;;;;;;;;;;;-143.57;100.00;51358.66;5080330;28;19924;-64
2022/11/25 04:42:38;;;;;;;;;;;;;;;-143.57;100.00;51362.63;5077305;28;19928;-64
2022/11/25 04:45:16;;;;;;;;;;;;;;;-143.57;100.00;51356.66;5079263;28;20797;-64
2022/11/25 04:47:52;;;;;;;;;;;;;;;-143.57;100.00;51350.69;5079977;28;19932;-65
2022/11/25 04:50:21;;;;;;;;;;;;;;;-143.57;100.00;51346.72;5092643;27;19928;-64
2022/11/25 04:53:06;;;;;;;;;;;;;;;-143.57;100.00;51346.72;5097555;27;19936;-64
2022/11/25 04:55:33;;;;;;;;;;;;;;;-143.57;100.00;51354.66;5081135;28;19997;-65
2022/11/25 04:58:04;;;;;;;;;;;;;;;-143.57;100.00;51366.59;5078342;28;19932;-64
2022/11/25 05:00:33;;;;;;;;;;;;;;;-143.57;100.00;51346.72;5079925;28;19935;-64
2022/11/25 05:03:00;;;;;;;;;;;;;;;-143.57;100.00;51358.66;5076587;28;20655;-64
2022/11/25 05:05:29;;;;;;;;;;;;;;;-143.57;100.00;51358.66;5082192;28;20644;-64
2022/11/25 05:07:55;;;;;;;;;;;;;;;-143.57;100.00;51362.63;5077485;28;19936;-65
2022/11/25 05:10:22;;;;;;;;;;;;;;;-143.57;100.00;51374.56;5079344;28;19935;-64
2022/11/25 05:12:49;;;;;;;;;;;;;;;-143.57;100.00;51358.66;5095030;28;20455;-65
2022/11/25 05:15:19;;;;;;;;;;;;;;;-143.57;100.00;51334.78;5079277;28;19932;-65
2022/11/25 05:17:46;;;;;;;;;;;;;;;-143.57;100.00;51334.78;5077677;28;19938;-64
2022/11/25 05:20:17;;;;;;;;;;;;;;;-143.57;100.00;51348.72;5076933;28;20010;-65
2022/11/25 05:22:44;;;;;;;;;;;;;;;-143.57;100.00;51340.75;5081450;28;19924;-64
2022/11/25 05:25:16;;;;;;;;;;;;;;;-143.57;100.00;51366.59;5077421;28;19925;-65
2022/11/25 05:27:57;;;;;;;;;;;;;;;-143.57;100.00;51358.66;5078728;28;19924;-65
2022/11/25 05:30:24;;;;;;;;;;;;;;;-143.57;100.00;51330.81;5073681;28;19928;-65
2022/11/25 05:32:51;;;;;;;;;;;;;;;-143.57;100.00;51342.75;5074741;28;19923;-65
2022/11/25 05:35:20;;;;;;;;;;;;;;;-143.57;100.00;51338.78;5071625;28;19924;-67
2022/11/25 05:37:47;;;;;;;;;;;;;;;-143.57;100.00;51310.94;5080064;28;19928;-67
2022/11/25 05:40:14;;;;;;;;;;;;;;;-143.57;100.00;51350.69;5071800;28;19951;-66
2022/11/25 05:42:54;;;;;;;;;;;;;;;-143.57;100.00;51338.78;5078149;28;19938;-65
2022/11/25 05:45:20;;;;;;;;;;;;;;;-143.57;100.00;51334.78;5078869;28;19924;-67
2022/11/25 05:47:47;;;;;;;;;;;;;;;-143.57;100.00;51340.75;5079763;28;19931;-66
2022/11/25 05:50:19;;;;;;;;;;;;;;;-143.57;100.00;51354.66;5073457;28;19935;-65
2022/11/25 05:53:01;;;;;;;;;;;;;;;-143.57;100.00;51322.88;5076733;28;20664;-67
2022/11/25 05:55:28;;;;;;;;;;;;;;;-143.57;100.00;51358.66;5076938;28;19928;-65
2022/11/25 05:57:58;;;;;;;;;;;;;;;-143.57;100.00;51342.75;5076580;28;20035;-65
2022/11/25 06:00:25;;;;;;;;;;;;;;;-143.57;100.00;51350.69;5074645;28;19938;-65
2022/11/25 06:02:54;;;;;;;;;;;;;;;-143.57;100.00;51346.72;5079914;28;19934;-65
2022/11/25 06:05:21;;;;;;;;;;;;;;;-143.57;100.00;51348.72;5076927;28;20529;-65
2022/11/25 06:07:49;;;;;;;;;;;;;;;-143.57;100.00;51346.72;5075163;28;19924;-65
2022/11/25 06:10:17;;;;;;;;;;;;;;;-143.57;100.00;51358.66;5075538;28;20581;-65
2022/11/25 06:12:44;;;;;;;;;;;;;;;-143.57;100.00;51358.66;5075969;28;19928;-65
2022/11/25 06:15:13;;;;;;;;;;;;;;;-143.57;100.00;51352.69;5080173;28;19927;-66
2022/11/25 06:17:40;;;;;;;;;;;;;;;-143.57;100.00;51386.47;5073435;28;19932;-66
2022/11/25 06:20:12;;;;;;;;;;;;;;;-143.57;100.00;51348.72;5077413;28;21425;-66
2022/11/25 06:22:39;;;;;;;;;;;;;;;-143.57;100.00;51326.84;5077548;28;19932;-63
2022/11/25 06:25:06;;;;;;;;;;;;;;;-143.57;100.00;51366.59;5078917;28;20377;-63
2022/11/25 06:27:35;;;;;;;;;;;;;;;-143.57;100.00;51342.75;5074073;28;19932;-63
2022/11/25 06:30:22;;;;;;;;;;;;;;;-143.57;100.00;51338.78;5078451;28;20022;-63
2022/11/25 06:33:02;;;;;;;;;;;;;;;-143.57;100.00;51362.63;5075885;28;19928;-64
2022/11/25 06:35:29;;;;;;;;;;;;;;;-143.57;100.00;51350.69;5078327;28;20429;-66
2022/11/25 06:38:00;;;;;;;;;;;;;;;-143.57;100.00;51370.56;5076232;28;19928;-66
2022/11/25 06:40:26;;;;;;;;;;;;;;;-143.57;100.00;51342.75;5076563;28;19933;-67
2022/11/25 06:42:53;;;;;;;;;;;;;;;-143.57;100.00;51358.66;5078294;28;20705;-63
2022/11/25 06:45:20;;;;;;;;;;;;;;;-143.57;100.00;51354.66;5077540;28;19964;-63
2022/11/25 06:47:46;;;;;;;;;;;;;;;-143.57;100.00;51326.84;5081725;28;20550;-65
2022/11/25 06:50:13;;;;;;;;;;;;;;;-143.57;100.00;51350.69;5075313;28;20012;-66
2022/11/25 06:52:39;;;;;;;;;;;;;;;-143.57;100.00;51366.59;5076291;28;20066;-65
2022/11/25 06:55:06;;;;;;;;;;;;;;;-143.57;100.00;51314.91;5081691;28;19973;-66
2022/11/25 06:57:33;;;;;;;;;;;;;;;-143.57;100.00;51368.59;5078426;28;20063;-65
2022/11/25 07:00:00;;;;;;;;;;;;;;;-143.57;100.00;51354.66;5075887;28;19928;-66
2022/11/25 07:02:26;;;;;;;;;;;;;;;-143.57;100.00;51354.66;5077994;28;19928;-66
2022/11/25 07:04:53;;;;;;;;;;;;;;;-143.57;100.00;51346.72;5079099;28;19939;-65
2022/11/25 07:07:20;;;;;;;;;;;;;;;-143.57;100.00;51322.88;5082645;28;19936;-65
2022/11/25 07:09:46;;;;;;;;;;;;;;;-143.57;100.00;51318.88;5081973;28;19928;-65
2022/11/25 07:12:13;;;;;;;;;;;;;;;-143.57;100.00;51358.66;5081365;28;19928;-66
2022/11/25 07:14:40;;;;;;;;;;;;;;;-143.57;100.00;51342.75;5083497;28;20792;-66
2022/11/25 07:17:06;;;;;;;;;;;;;;;-143.57;100.00;51330.81;5081818;28;19935;-65
2022/11/25 07:19:37;;;;;;;;;;;;;;;-143.57;100.00;51326.84;5084517;28;19924;-66
2022/11/25 07:22:04;;;;;;;;;;;;;;;-143.57;100.00;51348.72;5086630;28;19928;-65
2022/11/25 07:27:53;;;;;;;;;;;;;;;-143.57;100.00;51366.59;5072794;27;19924;-73
2022/11/25 07:30:20;;;;;;;;;;;;;;;-143.57;100.00;51340.75;5078662;28;19935;-73
2022/11/25 07:33:08;;;;;;;;;;;;;;;-143.57;100.00;51342.75;5077661;28;20936;-77
2022/11/25 07:35:35;;;;;;;;;;;;;;;-143.57;100.00;51368.59;5074202;28;20324;-73
2022/11/25 07:38:02;;;;;;;;;;;;;;;-143.57;100.00;51314.91;5071783;28;20010;-73
2022/11/25 07:40:29;;;;;;;;;;;;;;;-143.57;100.00;51382.50;5072552;28;19963;-72
2022/11/25 07:42:56;;;;;;;;;;;;;;;-143.57;100.00;51362.63;5076544;28;19982;-72
2022/11/25 07:45:23;;;;;;;;;;;;;;;-143.57;100.00;51314.91;5067552;28;20773;-71
2022/11/25 07:47:57;;;;;;;;;;;;;;;-143.57;100.00;51348.72;5069035;28;19928;-70
2022/11/25 07:50:24;;;;;;;;;;;;;;;-143.57;100.00;51303.00;5068938;28;20020;-70
2022/11/25 07:52:51;;;;;;;;;;;;;;;-143.57;100.00;51322.88;5071253;28;19932;-69
2022/11/25 07:55:18;;;;;;;;;;;;;;;-143.57;100.00;51322.88;5070923;28;19952;-70
2022/11/25 07:57:44;;;;;;;;;;;;;;;-143.57;100.00;51376.53;5072918;28;20057;-71
2022/11/25 08:00:13;;;;;;;;;;;;;;;-143.57;100.00;51346.72;5066528;28;20027;-70
2022/11/25 08:02:39;;;;;;;;;;;;;;;-143.57;100.00;51322.88;5077354;28;19936;-70
2022/11/25 08:05:08;;;;;;;;;;;;;;;-143.57;100.00;51342.75;5072195;28;19928;-70
2022/11/25 08:07:34;;;;;;;;;;;;;;;-143.57;100.00;51318.88;5068758;28;20369;-69
2022/11/25 08:10:03;;;;;;;;;;;;;;;-143.57;100.00;51326.84;5069360;28;19924;-69
2022/11/25 08:12:30;;;;;;;;;;;;;;;-143.57;100.00;51364.63;5071494;28;19962;-70
2022/11/25 08:14:57;;;;;;;;;;;;;;;-143.57;100.00;51322.88;5073864;28;20509;-70
2022/11/25 08:17:24;;;;;;;;;;;;;;;-143.57;100.00;51342.75;5072123;28;19989;-70
2022/11/25 08:19:50;;;;;;;;;;;;;;;-143.57;100.00;51303.00;5079140;28;19925;-69
2022/11/25 08:22:17;;;;;;;;;;;;;;;-143.57;100.00;51334.78;5071616;28;20332;-70
2022/11/25 08:24:43;;;;;;;;;;;;;;;-143.57;100.00;51318.88;5069704;28;19939;-69
2022/11/25 08:27:10;;;;;;;;;;;;;;;-143.57;100.00;51378.53;5071732;28;19990;-70
2022/11/25 08:29:37;;;;;;;;;;;;;;;-143.57;100.00;51314.91;5075608;28;19924;-70
2022/11/25 08:32:06;;;;;;;;;;;;;;;-143.57;100.00;51342.75;5069358;28;19935;-70
2022/11/25 08:34:37;;;;;;;;;;;;;;;-143.57;100.00;51340.75;5070490;28;19928;-70
2022/11/25 08:37:05;;;;;;;;;;;;;;;-143.57;100.00;51340.75;5072239;28;19931;-75
2022/11/25 08:39:32;;;;;;;;;;;;;;;-143.57;100.00;51310.94;5034598;28;19932;-68
2022/11/25 08:42:18;;;;;;;;;;;;;;;-143.57;100.00;51350.69;5061814;28;19993;-69
2022/11/25 08:44:49;;;;;;;;;;;;;;;-143.57;100.00;51378.53;5058863;28;21380;-67
2022/11/25 08:47:17;;;;;;;;;;;;;;;-143.57;100.00;51344.72;5067783;28;19933;-67
2022/11/25 08:49:43;;;;;;;;;;;;;;;-143.57;100.00;51374.56;5060452;28;20423;-68
2022/11/25 08:52:11;;;;;;;;;;;;;;;-143.57;100.00;51350.69;5059985;28;19925;-69
2022/11/25 08:54:37;;;;;;;;;;;;;;;-143.57;100.00;51330.81;5057874;28;20654;-69
2022/11/25 08:57:05;;;;;;;;;;;;;;;-143.57;100.00;51318.88;5055024;28;19970;-69
2022/11/25 08:59:31;;;;;;;;;;;;;;;-143.57;100.00;51322.88;5058324;28;20432;-69
2022/11/25 09:01:58;;;;;;;;;;;;;;;-143.57;100.00;51336.78;5067643;28;21101;-69
2022/11/25 09:04:25;;;;;;;;;;;;;;;-143.57;100.00;51342.75;5062969;28;20385;-68
2022/11/25 09:06:51;;;;;;;;;;;;;;;-143.57;100.00;51301.00;5059250;28;19932;-69
2022/11/25 09:09:18;;;;;;;;;;;;;;;-143.57;100.00;51314.91;5057603;28;19924;-68
2022/11/25 09:11:45;;;;;;;;;;;;;;;-143.57;100.00;51318.88;5058129;28;19951;-68
2022/11/25 09:14:12;;;;;;;;;;;;;;;-143.57;100.00;51326.84;5055901;28;20388;-69
2022/11/25 09:16:39;;;;;;;;;;;;;;;-143.57;100.00;51310.94;5058680;28;19928;-70
2022/11/25 09:19:06;;;;;;;;;;;;;;;-143.57;100.00;51326.84;5062324;28;20019;-69
2022/11/25 09:21:32;;;;;;;;;;;;;;;-143.57;100.00;51322.88;5057844;28;19968;-72
2022/11/25 09:23:59;;;;;;;;;;;;;;;-143.57;100.00;51354.66;5063639;28;19928;-70
2022/11/25 09:26:27;;;;;;;;;;;;;;;-143.57;100.00;51312.94;5055628;28;19931;-73
2022/11/25 09:28:54;;;;;;;;;;;;;;;-143.57;100.00;51338.78;5060623;28;19928;-73
2022/11/25 09:31:21;;;;;;;;;;;;;;;-143.57;100.00;51303.00;5059487;28;20423;-70
2022/11/25 09:33:48;;;;;;;;;;;;;;;-143.57;100.00;51326.84;5055681;28;19936;-69
2022/11/25 09:36:16;;;;;;;;;;;;;;;-143.57;100.00;51332.81;5061142;28;20629;-68
2022/11/25 09:38:43;;;;;;;;;;;;;;;-143.57;100.00;51310.94;5063149;28;19932;-68
2022/11/25 09:47:23;;;;;;;;;;;;;;;-143.57;100.00;51326.84;5057079;28;20760;-68
2022/11/25 09:50:01;;;;;;;;;;;;;;;-143.57;100.00;51330.81;5060040;28;19998;-68
2022/11/25 09:52:31;;;;;;;;;;;;;;;-143.57;100.00;51310.94;5058737;28;19929;-68
2022/11/25 09:55:04;;;;;;;;;;;;;;;-143.57;100.00;51338.78;5058116;28;19931;-68
2022/11/25 09:57:46;;;;;;;;;;;;;;;-143.57;100.00;51318.88;5057234;28;19943;-68
2022/11/25 10:00:17;;;;;;;;;;;;;;;-143.57;100.00;51322.88;5059278;28;19936;-68
2022/11/25 10:02:46;;;;;;;;;;;;;;;-143.57;100.00;51310.94;5057189;28;19963;-68
2022/11/25 10:05:19;;;;;;;;;;;;;;;-143.57;100.00;51334.78;5052382;28;20849;-68
2022/11/25 10:07:50;;;;;;;;;;;;;;;-143.57;100.00;51303.00;5059317;28;20650;-68
2022/11/25 10:10:25;;;;;;;;;;;;;;;-143.57;100.00;51304.97;5052713;28;19936;-68
2022/11/25 10:12:54;;;;;;;;;;;;;;;-143.57;100.00;51354.66;5058988;28;20363;-69
2022/11/25 10:15:39;;;;;;;;;;;;;;;-143.57;100.00;51324.84;5058387;28;19929;-69
2022/11/25 10:18:13;;;;;;;;;;;;;;;-143.57;100.00;51306.97;5055987;28;19928;-69
2022/11/25 10:20:41;;;;;;;;;;;;;;;-143.57;100.00;51330.81;5059991;28;19967;-67
2022/11/25 10:23:20;;;;;;;;;;;;;;;-143.57;100.00;51330.81;5063860;28;19932;-67
2022/11/25 10:26:00;;;;;;;;;;;;;;;-143.57;100.00;51364.63;5047280;28;19935;-67
2022/11/25 10:28:31;;;;;;;;;;;;;;;-143.57;100.00;51334.78;5060104;28;19935;-66
2022/11/25 10:30:57;;;;;;;;;;;;;;;-143.57;100.00;51330.81;5049481;28;20532;-66
2022/11/25 10:33:29;;;;;;;;;;;;;;;-143.57;100.00;51340.75;5059720;28;19928;-65
2022/11/25 10:35:56;;;;;;;;;;;;;;;-143.57;100.00;51295.03;5053036;28;20005;-66
2022/11/25 10:38:44;;;;;;;;;;;;;;;-143.57;100.00;51346.72;5057775;28;19935;-66
2022/11/25 10:41:14;;;;;;;;;;;;;;;-143.57;100.00;51318.88;5050827;28;20444;-65
2022/11/25 10:43:42;;;;;;;;;;;;;;;-143.57;100.00;51338.78;5057793;28;19936;-66
2022/11/25 10:46:15;;;;;;;;;;;;;;;-143.57;100.00;51328.81;5051323;28;20507;-67
2022/11/25 10:48:41;;;;;;;;;;;;;;;-143.57;100.00;51295.03;5059206;28;20913;-66
2022/11/25 10:51:45;;;;;;;;;;;;;;;-143.57;100.00;51342.75;5052832;28;20536;-66
2022/11/25 10:54:13;;;;;;;;;;;;;;;-143.57;100.00;51306.97;5037538;28;19935;-67
2022/11/25 10:57:00;;;;;;;;;;;;;;;-143.57;100.00;51328.81;5046459;28;19936;-67
2022/11/25 10:59:27;;;;;;;;;;;;;;;-143.57;100.00;51366.59;5053234;28;20655;-66
2022/11/25 11:02:11;;;;;;;;;;;;;;;-143.57;100.00;51320.88;5053730;28;19928;-66
2022/11/25 11:04:52;;;;;;;;;;;;;;;-143.57;100.00;51324.84;5052447;28;19924;-67
2022/11/25 11:07:19;;;;;;;;;;;;;;;-143.57;100.00;51326.84;5053309;28;19951;-70
2022/11/25 11:09:47;;;;;;;;;;;;;;;-143.57;100.00;51324.84;5051847;28;19924;-73
2022/11/25 11:12:18;;;;;;;;;;;;;;;-143.57;100.00;51344.72;5057470;28;20397;-69
2022/11/25 11:14:45;;;;;;;;;;;;;;;-143.57;100.00;51314.91;5057711;28;19951;-70
2022/11/25 11:17:31;;;;;;;;;;;;;;;-143.57;100.00;51299.00;5055769;28;20254;-72
2022/11/25 11:20:17;;;;;;;;;;;;;;;-143.57;100.00;51322.88;5052868;28;19939;-73
2022/11/25 11:22:48;;;;;;;;;;;;;;;-143.57;100.00;51301.00;5056628;28;19940;-69
2022/11/25 11:25:22;;;;;;;;;;;;;;;-143.57;100.00;51295.03;5057414;28;19932;-68
2022/11/25 11:27:48;;;;;;;;;;;;;;;-143.57;100.00;51356.66;5057338;28;19928;-68
2022/11/25 11:30:20;;;;;;;;;;;;;;;-143.57;100.00;51322.88;5054089;28;19939;-69
2022/11/25 11:33:25;;;;;;;;;;;;;;;-143.57;100.00;51322.88;5055355;28;20316;-69
2022/11/25 11:35:56;;;;;;;;;;;;;;;-143.57;100.00;51342.75;5051968;28;19925;-69
2022/11/25 11:38:41;;;;;;;;;;;;;;;-143.57;100.00;51318.88;5057305;28;19932;-66
2022/11/25 11:41:08;;;;;;;;;;;;;;;-143.57;100.00;51299.00;5056034;28;19936;-67
2022/11/25 11:43:40;;;;;;;;;;;;;;;-143.57;100.00;51318.88;5052175;28;19932;-66
2022/11/25 11:46:26;;;;;;;;;;;;;;;-143.57;100.00;51334.78;5051288;28;19978;-66
2022/11/25 11:48:58;;;;;;;;;;;;;;;-143.57;100.00;51342.75;5046851;28;19924;-67
2022/11/25 11:51:31;;;;;;;;;;;;;;;-143.57;100.00;51330.81;5058332;28;19928;-67
2022/11/25 11:54:05;;;;;;;;;;;;;;;-143.57;100.00;51303.00;5052427;28;20593;-69
2022/11/25 11:56:34;;;;;;;;;;;;;;;-143.57;100.00;51330.81;5049382;28;19928;-71
2022/11/25 11:59:04;;;;;;;;;;;;;;;-143.57;100.00;51338.78;5056322;28;20320;-71
2022/11/25 12:01:34;;;;;;;;;;;;;;;-143.57;100.00;51326.84;5053581;28;19928;-68
2022/11/25 12:04:10;;;;;;;;;;;;;;;-143.57;100.00;51338.78;5056804;28;19929;-69
2022/11/25 12:06:37;;;;;;;;;;;;;;;-143.57;100.00;51326.84;5053921;28;19929;-68
2022/11/25 12:09:09;;;;;;;;;;;;;;;-143.57;100.00;51330.81;5052999;28;19936;-70
2022/11/25 12:11:38;;;;;;;;;;;;;;;-143.57;100.00;51310.94;5055743;28;20009;-69
2022/11/25 12:14:24;;;;;;;;;;;;;;;-143.57;100.00;51330.81;5052578;28;19932;-68
2022/11/25 12:16:58;;;;;;;;;;;;;;;-143.57;100.00;51350.69;5064169;28;19924;-68
2022/11/25 12:19:49;;;;;;;;;;;;;;;-143.57;100.00;51291.06;5055379;28;19994;-70
2022/11/25 12:22:22;;;;;;;;;;;;;;;-143.57;100.00;51279.13;5055881;28;19943;-69
2022/11/25 12:24:57;;;;;;;;;;;;;;;-143.57;100.00;51318.88;5057964;28;19924;-69
2022/11/25 12:27:39;;;;;;;;;;;;;;;-143.57;100.00;51334.78;5058191;28;19924;-69
2022/11/25 12:30:29;;;;;;;;;;;;;;;-143.57;100.00;51334.78;5063005;28;20015;-68
2022/11/25 12:33:01;;;;;;;;;;;;;;;-143.57;100.00;51314.91;5051072;28;19932;-67
2022/11/25 12:35:37;;;;;;;;;;;;;;;-143.57;100.00;51318.88;5056106;28;19925;-68
2022/11/25 12:38:14;;;;;;;;;;;;;;;-143.57;72.75;51316.91;5059084;28;19933;-67
2022/11/25 12:40:40;;;;;;;;;;;;;;;-143.57;68.00;51320.88;5055358;28;19929;-68
2022/11/25 12:43:26;;;;;;;;;;;;;;;-143.57;66.94;51330.81;5052621;28;20753;-69
2022/11/25 12:46:13;;;;;;;;;;;;;;;-143.57;63.71;51346.72;5055007;28;19924;-67